Time;durP1;ratioP1;P1;durP2;ratioP2;P2;SDS_P1;SDS_P2;PMS_P1;PMS_P2;Temp;Humidity;BMP_temperature;BMP_pressure;BME280_temperature;BME280_humidity;BME280_pressure;Samples;Min_cycle;Max_cycle;Signal;HPM_P1;HPM_P2
2022/01/26 00:08:13;;;;;;;23.93;17.53;;;;;;;2.41;100.00;101293.38;15270233;19;20509;-54
2022/01/26 00:13:18;;;;;;;25.07;17.73;;;;;;;2.41;100.00;101296.00;15276682;19;20146;-54
2022/01/26 00:18:23;;;;;;;23.33;16.77;;;;;;;2.44;100.00;101290.66;15273293;19;20152;-52
2022/01/26 00:23:52;;;;;;;23.77;17.07;;;;;;;2.47;100.00;101281.84;15252147;19;20157;-57
2022/01/26 00:29:09;;;;;;;22.97;16.60;;;;;;;2.51;100.00;101289.69;15260676;19;20824;-56
2022/01/26 00:39:31;;;;;;;21.10;16.50;;;;;;;2.59;100.00;101296.59;15273435;19;20150;-54
2022/01/26 00:44:41;;;;;;;24.30;17.57;;;;;;;2.63;100.00;101299.16;15261459;19;20144;-55
2022/01/26 00:49:46;;;;;;;22.93;17.80;;;;;;;2.64;100.00;101289.50;15250963;19;20182;-54
2022/01/26 00:54:50;;;;;;;23.37;18.53;;;;;;;2.64;100.00;101294.75;15274841;19;20172;-52
2022/01/26 00:59:55;;;;;;;25.00;18.13;;;;;;;2.61;100.00;101289.53;15271111;19;20592;-54
2022/01/26 01:05:03;;;;;;;27.70;20.20;;;;;;;2.64;100.00;101289.50;15271428;19;20598;-57
2022/01/26 01:10:08;;;;;;;24.80;19.60;;;;;;;2.68;100.00;101285.88;15244397;19;20154;-55
2022/01/26 01:15:14;;;;;;;25.90;19.50;;;;;;;2.63;100.00;101277.22;15263987;19;21175;-51
2022/01/26 01:20:35;;;;;;;22.93;18.40;;;;;;;2.62;100.00;101275.47;15271025;19;20592;-55
2022/01/26 01:31:12;;;;;;;26.77;18.27;;;;;;;2.56;100.00;101275.56;15246925;19;20183;-52
2022/01/26 01:36:16;;;;;;;24.77;17.70;;;;;;;2.49;100.00;101270.41;15256880;19;20494;-50
2022/01/26 01:41:21;;;;;;;23.90;18.10;;;;;;;2.45;100.00;101257.28;15268471;19;20149;-53
2022/01/26 01:46:25;;;;;;;20.97;16.37;;;;;;;2.45;100.00;101260.78;15270172;19;20147;-55
2022/01/26 01:51:33;;;;;;;22.57;16.50;;;;;;;2.46;100.00;101251.13;15260514;19;20244;-54
2022/01/26 01:56:39;;;;;;;21.37;15.93;;;;;;;2.45;100.00;101258.16;15245168;19;20504;-56
2022/01/26 02:01:44;;;;;;;24.53;18.73;;;;;;;2.38;100.00;101253.91;15273037;19;20159;-56
2022/01/26 02:06:49;;;;;;;26.07;17.43;;;;;;;2.36;100.00;101253.03;15284102;19;20744;-57
2022/01/26 02:11:56;;;;;;;23.03;16.17;;;;;;;2.37;100.00;101254.78;15284989;19;20172;-55
2022/01/26 02:17:12;;;;;;;26.07;17.17;;;;;;;2.32;100.00;101256.59;15256821;19;20738;-53
2022/01/26 02:59:51;;;;;;;30.07;21.40;;;;;;;2.26;100.00;101242.69;15268328;19;20910;-56
2022/01/26 03:04:58;;;;;;;32.37;21.23;;;;;;;2.27;100.00;101239.16;15256548;19;20153;-56
2022/01/26 03:10:08;;;;;;;31.53;20.93;;;;;;;2.29;100.00;101235.59;15278443;19;20735;-53
2022/01/26 03:15:17;;;;;;;29.23;18.27;;;;;;;2.31;100.00;101243.47;15280631;19;20150;-54
2022/01/26 03:20:21;;;;;;;26.10;18.80;;;;;;;2.31;100.00;101249.59;15272629;19;20163;-55
2022/01/26 03:31:13;;;;;;;26.00;18.17;;;;;;;2.25;100.00;101233.91;15268725;19;20190;-54
2022/01/26 03:36:16;;;;;;;24.27;17.00;;;;;;;2.27;100.00;101242.66;15279975;19;20143;-53
2022/01/26 03:41:33;;;;;;;20.93;15.37;;;;;;;2.26;100.00;101235.66;15275918;19;20150;-50
2022/01/26 03:46:38;;;;;;;19.13;13.50;;;;;;;2.25;100.00;101243.56;15249598;19;20944;-56
2022/01/26 03:51:44;;;;;;;19.53;14.13;;;;;;;2.17;100.00;101234.00;15265641;19;20783;-55
2022/01/26 03:56:48;;;;;;;16.83;12.53;;;;;;;2.20;100.00;101235.72;15278723;19;20200;-55
2022/01/26 04:01:53;;;;;;;19.63;11.90;;;;;;;2.20;100.00;101245.38;15274551;19;20147;-55
2022/01/26 04:06:59;;;;;;;20.63;14.00;;;;;;;2.15;100.00;101242.84;15262880;19;20151;-54
2022/01/26 04:12:04;;;;;;;23.43;15.33;;;;;;;2.11;100.00;101241.13;15254999;19;20261;-55
2022/01/26 04:17:08;;;;;;;19.87;14.20;;;;;;;2.02;100.00;101246.56;15276229;19;20142;-53
2022/01/26 04:22:17;;;;;;;15.87;11.63;;;;;;;1.90;100.00;101241.47;15272651;19;20270;-48
2022/01/26 04:27:30;;;;;;;13.70;9.37;;;;;;;1.78;100.00;101231.97;15271965;19;20154;-56
2022/01/26 04:32:35;;;;;;;15.83;10.10;;;;;;;1.73;100.00;101237.28;15246846;19;20204;-55
2022/01/26 04:37:56;;;;;;;14.47;10.00;;;;;;;1.75;100.00;101232.88;15264473;19;20151;-54
2022/01/26 04:43:05;;;;;;;14.70;9.97;;;;;;;1.80;100.00;101231.06;15270441;19;20398;-55
2022/01/26 04:48:09;;;;;;;15.77;11.17;;;;;;;1.83;100.00;101234.53;15274642;19;20143;-51
2022/01/26 04:53:14;;;;;;;20.37;11.90;;;;;;;1.85;100.00;101222.22;15250283;19;20155;-56
2022/01/26 04:58:19;;;;;;;15.83;11.57;;;;;;;1.97;100.00;101222.03;15253267;19;20162;-53
2022/01/26 05:03:23;;;;;;;24.43;15.93;;;;;;;2.05;100.00;101215.75;15265007;19;20159;-55
2022/01/26 05:08:28;;;;;;;31.63;19.30;;;;;;;2.12;100.00;101211.28;15267653;19;20617;-54
2022/01/26 05:13:32;;;;;;;28.37;18.80;;;;;;;2.08;100.00;101199.06;15260845;19;20530;-51
2022/01/26 05:18:37;;;;;;;26.47;17.27;;;;;;;2.11;100.00;101199.00;15245476;19;20155;-55
2022/01/26 05:23:41;;;;;;;19.63;14.43;;;;;;;2.10;100.00;101198.16;15264342;19;20159;-53
2022/01/26 05:28:46;;;;;;;23.37;14.67;;;;;;;2.10;100.00;101186.75;15270700;19;20195;-51
2022/01/26 05:33:53;;;;;;;21.33;14.40;;;;;;;2.06;100.00;101196.44;15272103;19;20613;-54
2022/01/26 05:38:58;;;;;;;23.53;16.57;;;;;;;2.03;100.00;101195.66;15261584;19;20146;-53
2022/01/26 05:44:03;;;;;;;26.07;16.10;;;;;;;2.04;100.00;101202.66;15272674;19;20211;-52
2022/01/26 05:49:07;;;;;;;20.73;14.70;;;;;;;2.11;100.00;101199.00;15285418;19;20158;-53
2022/01/26 05:54:12;;;;;;;25.53;17.07;;;;;;;2.13;100.00;101202.50;15284071;19;20633;-53
2022/01/26 05:59:21;;;;;;;24.47;17.10;;;;;;;2.12;100.00;101200.75;15272645;19;20159;-53
2022/01/26 06:04:25;;;;;;;25.93;17.13;;;;;;;2.13;100.00;101202.50;15258782;19;20146;-55
2022/01/26 06:09:30;;;;;;;25.53;17.30;;;;;;;2.10;100.00;101198.16;15283159;19;20156;-55
2022/01/26 06:14:35;;;;;;;23.50;16.60;;;;;;;2.12;100.00;101193.72;15284086;19;20164;-52
2022/01/26 06:19:40;;;;;;;26.13;17.30;;;;;;;2.03;100.00;101179.84;15279687;19;20158;-56
2022/01/26 06:24:44;;;;;;;23.20;14.97;;;;;;;2.07;100.00;101192.06;15251969;19;20262;-56
2022/01/26 06:29:48;;;;;;;20.17;14.57;;;;;;;2.10;100.00;101189.38;15263626;19;20231;-54
2022/01/26 06:34:53;;;;;;;23.03;14.63;;;;;;;2.15;100.00;101187.56;15284360;19;20150;-53
2022/01/26 06:39:57;;;;;;;29.27;15.67;;;;;;;2.09;100.00;101179.75;15277410;19;20296;-52
2022/01/26 06:45:15;;;;;;;24.67;16.47;;;;;;;2.04;100.00;101176.31;15265592;19;20158;-54
2022/01/26 06:50:20;;;;;;;23.40;16.10;;;;;;;2.01;100.00;101186.91;15255196;19;20582;-51
2022/01/26 06:55:25;;;;;;;23.27;16.10;;;;;;;2.00;100.00;101186.03;15279871;19;20159;-54
2022/01/26 07:00:29;;;;;;;23.30;15.57;;;;;;;1.97;100.00;101193.09;15277438;19;20159;-51
2022/01/26 07:05:34;;;;;;;23.30;15.83;;;;;;;2.01;100.00;101181.63;15277388;19;20613;-53
2022/01/26 07:10:39;;;;;;;21.40;15.57;;;;;;;2.02;100.00;101183.38;15252437;19;20149;-49
2022/01/26 07:26:18;;;;;;;20.73;14.83;;;;;;;2.24;100.00;101168.97;15278978;19;20134;-54
2022/01/26 07:31:30;;;;;;;20.37;14.93;;;;;;;2.25;100.00;101173.34;15249588;19;20621;-56
2022/01/26 07:36:35;;;;;;;25.77;16.23;;;;;;;2.27;100.00;101174.19;15262472;19;20143;-52
2022/01/26 07:41:39;;;;;;;27.63;16.80;;;;;;;2.23;100.00;101177.75;15276636;19;20158;-55
2022/01/26 07:46:44;;;;;;;26.47;16.47;;;;;;;2.23;100.00;101176.88;15276402;19;20135;-52
2022/01/26 07:51:51;;;;;;;23.27;17.97;;;;;;;2.33;100.00;101167.94;15269168;19;20868;-52
2022/01/26 07:56:55;;;;;;;29.70;20.67;;;;;;;2.45;100.00;101173.88;15252480;19;20146;-52
2022/01/26 08:02:05;;;;;;;34.87;23.27;;;;;;;2.52;100.00;101164.97;15270794;19;20147;-54
2022/01/26 08:07:10;;;;;;;30.03;21.20;;;;;;;2.56;100.00;101159.63;15278016;19;20268;-53
2022/01/26 08:12:17;;;;;;;27.87;19.17;;;;;;;2.65;100.00;101159.47;15275127;19;20171;-53
2022/01/26 08:17:22;;;;;;;30.03;20.20;;;;;;;2.89;100.00;101170.44;15248575;19;20139;-51
2022/01/26 08:22:28;;;;;;;31.83;21.93;;;;;;;2.84;100.00;101171.41;15259203;19;20148;-49
2022/01/26 08:27:39;;;;;;;30.53;20.07;;;;;;;2.91;100.00;101167.75;15275755;19;20227;-55
2022/01/26 08:32:44;;;;;;;28.73;19.13;;;;;;;3.15;100.00;101177.81;15273844;19;20136;-48
2022/01/26 08:37:49;;;;;;;26.77;18.20;;;;;;;3.35;100.00;101179.19;15260300;19;20129;-55
2022/01/26 08:42:55;;;;;;;26.50;21.30;;;;;;;3.41;100.00;101174.63;15246219;19;20158;-49
2022/01/26 08:47:59;;;;;;;27.47;20.13;;;;;;;3.52;100.00;101177.03;15273342;19;20166;-53
2022/01/26 08:53:04;;;;;;;26.20;18.30;;;;;;;3.56;100.00;101169.03;15273486;19;20650;-54
2022/01/26 08:58:09;;;;;;;23.27;18.20;;;;;;;3.57;100.00;101165.50;15274118;19;20140;-54
2022/01/26 09:03:13;;;;;;;21.00;16.90;;;;;;;3.84;100.00;101171.94;15241445;19;20137;-52
2022/01/26 09:08:18;;;;;;;22.63;17.60;;;;;;;3.96;100.00;101163.72;15262568;19;20216;-53
2022/01/26 09:13:24;;;;;;;23.67;17.20;;;;;;;4.00;100.00;101172.41;15272669;19;20154;-56
2022/01/26 09:18:40;;;;;;;23.10;16.30;;;;;;;4.01;100.00;101162.72;15273916;19;20180;-52
2022/01/26 09:23:44;;;;;;;20.57;15.00;;;;;;;3.92;100.00;101167.31;15249863;19;20562;-51
2022/01/26 09:28:49;;;;;;;18.33;14.23;;;;;;;3.91;100.00;101170.88;15247938;19;20200;-54
2022/01/26 09:33:53;;;;;;;18.73;14.93;;;;;;;4.11;100.00;101166.88;15272088;19;20149;-53
2022/01/26 09:38:58;;;;;;;18.80;14.53;;;;;;;4.29;100.00;101155.88;15272033;19;20145;-51
2022/01/26 09:44:04;;;;;;;15.70;12.87;;;;;;;4.44;100.00;101144.91;15264093;19;20601;-54
2022/01/26 09:49:09;;;;;;;18.17;13.13;;;;;;;4.74;100.00;101142.34;15238671;19;20569;-54
2022/01/26 09:54:16;;;;;;;15.60;12.07;;;;;;;4.92;100.00;101142.72;15262875;19;20169;-55
2022/01/26 09:59:22;;;;;;;15.83;11.77;;;;;;;4.97;100.00;101142.59;15270238;19;20133;-52
2022/01/26 10:04:30;;;;;;;15.17;11.80;;;;;;;5.06;100.00;101135.28;15266140;19;20141;-56
2022/01/26 10:09:49;;;;;;;12.57;11.20;;;;;;;5.29;100.00;101131.97;15243883;19;20297;-52
2022/01/26 10:20:18;;;;;;;11.87;10.63;;;;;;;5.46;100.00;101133.22;15269851;19;20133;-52
2022/01/26 10:25:22;;;;;;;14.13;10.07;;;;;;;5.47;100.00;101119.94;15282360;19;20180;-52
2022/01/26 10:30:47;;;;;;;12.17;9.50;;;;;;;5.37;100.00;101114.06;15264752;19;20186;-54
2022/01/26 10:35:52;;;;;;;10.40;8.80;;;;;;;5.47;100.00;101114.66;15259498;19;20157;-55
2022/01/26 10:40:59;;;;;;;11.63;8.27;;;;;;;5.26;100.00;101115.31;15282745;19;20606;-52
2022/01/26 10:46:06;;;;;;;10.80;7.77;;;;;;;5.01;100.00;101107.22;15279301;19;20158;-53
2022/01/26 10:51:41;;;;;;;13.40;8.90;;;;;;;4.77;100.00;101099.97;15279533;19;20611;-53
2022/01/26 10:56:46;;;;;;;9.57;8.13;;;;;;;4.74;100.00;101094.75;15253100;19;20157;-51
2022/01/26 11:01:51;;;;;;;8.63;7.70;;;;;;;4.77;100.00;101089.41;15275039;19;20155;-52
2022/01/26 11:06:56;;;;;;;11.20;9.23;;;;;;;4.65;100.00;101080.91;15281002;19;20832;-53
2022/01/26 11:12:02;;;;;;;13.63;10.33;;;;;;;4.52;100.00;101078.63;15279127;19;20232;-50
2022/01/26 11:17:07;;;;;;;11.97;10.10;;;;;;;4.40;100.00;101077.19;15256231;19;20935;-51
2022/01/26 11:22:14;;;;;;;13.33;10.10;;;;;;;4.33;100.00;101065.06;15261509;19;20148;-52
2022/01/26 11:27:38;;;;;;;12.70;10.07;;;;;;;4.30;100.00;101067.78;15278859;19;20205;-54
2022/01/26 11:32:55;;;;;;;12.97;11.00;;;;;;;4.20;100.00;101053.97;15278612;19;20153;-55
2022/01/26 11:38:16;;;;;;;17.07;12.27;;;;;;;4.10;100.00;101059.53;15263739;19;21064;-53
2022/01/26 11:48:38;;;;;;;18.60;13.60;;;;;;;3.89;100.00;101045.94;15278798;19;20208;-56
2022/01/26 11:53:42;;;;;;;16.03;12.70;;;;;;;3.86;100.00;101038.13;15277679;19;20168;-51
2022/01/26 11:58:50;;;;;;;14.20;11.90;;;;;;;3.74;100.00;101033.16;15274574;19;20145;-50
2022/01/26 12:03:59;;;;;;;14.37;12.30;;;;;;;3.71;100.00;101025.28;15244673;19;20249;-55
2022/01/26 12:09:07;;;;;;;14.87;11.77;;;;;;;3.68;100.00;101025.38;15268944;19;20149;-51
2022/01/26 12:14:19;;;;;;;11.07;9.97;;;;;;;3.74;100.00;101014.66;15276602;19;20150;-56
2022/01/26 12:19:32;;;;;;;14.63;11.47;;;;;;;3.73;100.00;101020.84;15275110;19;20151;-53
2022/01/26 12:35:32;;;;;;;15.70;13.40;;;;;;;3.59;100.00;101009.75;15275186;19;20910;-54
2022/01/26 12:46:03;;;;;;;19.10;16.80;;;;;;;3.46;100.00;100985.44;15253488;19;20194;-55
2022/01/26 12:51:08;;;;;;;22.40;19.53;;;;;;;3.43;100.00;100982.88;15252877;19;20649;-55
2022/01/26 12:56:15;;;;;;;20.43;18.00;;;;;;;3.50;100.00;100984.44;15274596;19;20149;-50
2022/01/26 13:01:22;;;;;;;17.80;15.77;;;;;;;3.52;100.00;100976.50;15274175;19;20171;-54
2022/01/26 13:06:31;;;;;;;17.30;13.93;;;;;;;3.52;100.00;100972.09;15268474;19;20144;-54
2022/01/26 13:11:37;;;;;;;15.07;12.73;;;;;;;3.45;100.00;100969.66;15244847;19;20151;-53
2022/01/26 13:16:46;;;;;;;13.60;11.27;;;;;;;3.42;100.00;100969.72;15265425;19;20141;-55
2022/01/26 13:27:50;;;;;;;13.60;11.90;;;;;;;3.44;100.00;100960.00;15271521;19;20610;-55
2022/01/26 13:38:34;;;;;;;14.80;12.40;;;;;;;3.33;100.00;100949.72;15260970;19;20169;-52
2022/01/26 13:49:16;;;;;;;14.60;12.10;;;;;;;3.23;100.00;100948.22;15268442;19;20210;-55
2022/01/26 13:59:45;;;;;;;14.87;11.37;;;;;;;3.24;100.00;100940.25;15269462;19;20823;-54
2022/01/26 14:04:49;;;;;;;16.47;14.00;;;;;;;3.29;100.00;100941.91;15280855;19;20490;-54
2022/01/26 14:09:54;;;;;;;14.63;12.63;;;;;;;3.33;100.00;100939.16;15284975;19;20513;-55
2022/01/26 14:14:59;;;;;;;14.10;11.93;;;;;;;3.41;100.00;100931.06;15270558;19;20154;-51
2022/01/26 14:20:16;;;;;;;14.13;12.50;;;;;;;3.44;100.00;100929.22;15258912;19;20155;-52
2022/01/26 14:25:26;;;;;;;19.30;15.20;;;;;;;3.47;100.00;100926.50;15277072;19;20474;-51
2022/01/26 14:30:39;;;;;;;17.13;14.10;;;;;;;3.47;100.00;100925.63;15273081;19;20251;-57
2022/01/26 14:50:56;;;;;;;20.17;15.90;;;;;;;3.44;100.00;100912.50;15250647;19;20678;-55
2022/01/26 14:52:30;;;;;;;17.90;15.37;;;;;;;3.29;100.00;100904.97;15277360;19;20149;-55
2022/01/26 15:50:56;;;;;;;19.23;13.67;;;;;;;3.40;100.00;100900.28;15254013;19;20158;-51
2022/01/26 16:17:46;;;;;;;16.03;11.67;;;;;;;3.38;100.00;100883.66;15271242;19;20145;-55
2022/01/26 16:38:57;;;;;;;17.13;13.80;;;;;;;3.30;100.00;100893.53;15254537;19;20163;-57
2022/01/26 17:55:07;;;;;;;10.17;9.17;;;;;;;3.04;100.00;100862.53;15280658;19;20165;-59
2022/01/26 18:51:59;;;;;;;25.33;18.53;;;;;;;2.66;100.00;100840.59;15271854;19;20154;-59
2022/01/26 18:57:06;;;;;;;18.00;16.07;;;;;;;2.61;100.00;100836.34;15277248;19;20151;-51
2022/01/26 19:02:11;;;;;;;21.03;16.57;;;;;;;2.59;100.00;100833.75;15280502;19;20144;-52
2022/01/26 19:07:36;;;;;;;20.80;15.93;;;;;;;2.56;100.00;100835.59;15254648;19;20147;-53
2022/01/26 19:12:42;;;;;;;17.50;14.77;;;;;;;2.52;100.00;100837.44;15260837;19;20156;-57
2022/01/26 19:17:52;;;;;;;20.27;16.27;;;;;;;2.46;100.00;100848.97;15274914;19;20163;-57
2022/01/26 19:23:11;;;;;;;17.37;14.73;;;;;;;2.41;100.00;100807.84;15270300;19;20175;-54
2022/01/26 19:28:20;;;;;;;15.43;13.10;;;;;;;2.33;100.00;100815.03;15259293;19;20166;-56
2022/01/26 19:40:02;;;;;;;15.87;12.30;;;;;;;2.31;100.00;100828.22;15247975;19;20143;-50
2022/01/26 19:44:31;;;;;;;12.97;11.57;;;;;;;2.25;100.00;100828.38;15267962;19;20213;-51
2022/01/26 19:54:54;;;;;;;15.53;11.93;;;;;;;2.26;100.00;100834.53;15247422;19;20160;-54
2022/01/26 19:59:59;;;;;;;14.03;12.07;;;;;;;2.29;100.00;100824.81;15267159;19;21126;-53
2022/01/26 20:05:03;;;;;;;15.30;12.77;;;;;;;2.30;100.00;100813.34;15263240;19;20143;-55
2022/01/26 20:10:10;;;;;;;16.03;12.93;;;;;;;2.29;100.00;100801.09;15268861;19;20151;-57
2022/01/26 20:15:15;;;;;;;14.50;12.50;;;;;;;2.30;100.00;100794.03;15246209;19;20203;-55
2022/01/26 20:20:21;;;;;;;13.47;12.07;;;;;;;2.22;100.00;100781.06;15257946;19;20493;-60
2022/01/26 20:25:26;;;;;;;14.73;13.20;;;;;;;2.22;100.00;100764.38;15263960;19;20176;-52
2022/01/26 20:30:33;;;;;;;13.50;10.73;;;;;;;2.25;100.00;100759.94;15269264;19;20802;-55
2022/01/26 20:35:38;;;;;;;12.57;10.60;;;;;;;2.28;100.00;100774.81;15260184;19;20159;-56
2022/01/26 20:40:43;;;;;;;11.27;9.97;;;;;;;2.31;100.00;100795.78;15250678;19;20157;-52
2022/01/26 20:45:47;;;;;;;10.57;8.90;;;;;;;2.29;100.00;100782.66;15265926;19;20140;-58
2022/01/26 20:50:53;;;;;;;12.07;10.20;;;;;;;2.24;100.00;100799.47;15271792;19;20172;-52
2022/01/26 20:55:58;;;;;;;11.87;9.37;;;;;;;2.14;100.00;100765.44;15272353;19;20211;-53
2022/01/26 21:01:05;;;;;;;13.03;9.77;;;;;;;2.00;100.00;100762.25;15246227;19;20163;-54
2022/01/26 21:06:10;;;;;;;11.50;9.67;;;;;;;1.89;100.00;100789.69;15257198;19;20158;-53
2022/01/26 21:11:14;;;;;;;12.57;10.20;;;;;;;1.83;100.00;100763.50;15272656;19;20179;-52
2022/01/26 21:16:20;;;;;;;10.63;9.37;;;;;;;1.82;100.00;100770.53;15266424;19;20155;-53
2022/01/26 21:21:26;;;;;;;11.53;9.97;;;;;;;1.79;100.00;100750.44;15255567;19;20146;-53
2022/01/26 21:26:30;;;;;;;13.13;10.83;;;;;;;1.74;100.00;100760.19;15247267;19;20691;-53
2022/01/26 21:31:35;;;;;;;15.50;12.50;;;;;;;1.74;100.00;100756.69;15262076;19;20202;-57
2022/01/26 21:36:39;;;;;;;16.27;13.03;;;;;;;1.70;100.00;100761.13;15271240;19;20161;-50
2022/01/26 21:41:45;;;;;;;17.87;13.83;;;;;;;1.66;100.00;100756.84;15267712;19;20637;-49
2022/01/26 21:46:49;;;;;;;16.23;12.90;;;;;;;1.65;100.00;100747.22;15239674;19;20188;-56
2022/01/26 21:51:54;;;;;;;17.93;13.90;;;;;;;1.63;100.00;100749.03;15264478;19;20299;-53
2022/01/26 21:56:58;;;;;;;17.23;14.77;;;;;;;1.61;100.00;100740.28;15270223;19;20138;-53
2022/01/26 22:02:03;;;;;;;17.93;14.33;;;;;;;1.64;100.00;100732.34;15270397;19;20225;-52
2022/01/26 22:07:08;;;;;;;16.77;13.70;;;;;;;1.71;100.00;100747.09;15244565;19;20226;-52
2022/01/26 22:12:13;;;;;;;19.40;14.73;;;;;;;1.74;100.00;100754.91;15255628;19;20142;-56
2022/01/26 22:17:18;;;;;;;17.77;13.93;;;;;;;1.79;100.00;100747.81;15273690;19;20603;-55
2022/01/26 22:22:23;;;;;;;17.33;14.27;;;;;;;1.79;100.00;100750.44;15281101;19;20462;-51
2022/01/26 22:27:31;;;;;;;17.07;14.57;;;;;;;1.75;100.00;100732.97;15270200;19;20147;-51
2022/01/26 22:37:30;;;;;;;15.17;12.83;;;;;;;1.72;100.00;100748.81;15181926;19;3044274;-52
2022/01/26 22:42:34;;;;;;;14.60;13.07;;;;;;;1.75;100.00;100742.63;15348431;19;20149;-51
2022/01/26 22:47:39;;;;;;;18.03;13.43;;;;;;;1.77;100.00;100735.56;15348367;19;20158;-54
2022/01/26 22:52:43;;;;;;;14.70;12.73;;;;;;;1.80;100.00;100731.13;15315096;19;20822;-53
2022/01/26 22:57:48;;;;;;;14.93;12.03;;;;;;;1.80;100.00;100731.13;15331872;19;20902;-55
2022/01/26 23:02:52;;;;;;;12.20;10.90;;;;;;;1.83;100.00;100726.66;15346216;19;20609;-57
2022/01/26 23:08:17;;;;;;;13.20;11.00;;;;;;;1.81;100.00;100722.31;15348603;19;20167;-54
2022/01/26 23:13:22;;;;;;;12.90;10.73;;;;;;;1.86;100.00;100718.72;15331766;19;20146;-55
2022/01/26 23:18:26;;;;;;;12.10;10.80;;;;;;;1.85;100.00;100702.06;15325816;19;20643;-52
2022/01/26 23:23:32;;;;;;;12.13;10.93;;;;;;;1.85;100.00;100709.09;15346771;19;20158;-53
